23AR weather

Classic Airstrip
Jonesboro, Arkansas, United States

Public forecast

Using degrees Fahrenheit for public forecast. Weather courtesy of forecast.io.

Closest aviation weather report (METAR) to Classic Airstrip

Report is more than 6 hours old.

Closest report is Jonesboro Municipal Airport, 4.8 nm (9.0 km) W. Retrieved 2020/03/28 23:53 UTC (2 months ago):

KJBR 282353Z AUTO RMK AO2 LTG DSNT E-S RAEMM SLPNO P0005 60018 10239 20217 PWINO FZRANO

Closest aviation forecast (TAF) to Classic Airstrip

Closest forecast is Jonesboro Municipal Airport, 4.8 nm (9.0 km) W. Retrieved 2020/05/25 18:36 UTC (3 hours ago):

TAF KJBR 251734Z 2518/2618 17010KT P6SM SCT035 BKN250 FM251900 16011KT P6SM VCTS SCT050CB BKN090 FM260100 15007KT P6SM VCSH SCT050 BKN080 BKN250 FM261200 16010KT P6SM OVC050 FM261600 16013KT P6SM OVC025 AMD NOT SKED